WESTPORT MEDIA Westport In The Media

Enter your "Place, State", US Zip Code or ICAO:  

Cozumel Civ / Mil, Mexico

 Lat: 20.53N, Lon: 86.93W
ICAO Used: MMCZ
Current Conditions
Updated: 3:45 AM GMT-6 THU NOV 27 2014
Sun & Moon Information
Mostly Cloudy
Mostly Cloudy
Temp: 21°C
Humidity: 77%
Wind Speed: N 21 MPH
Barometer: 1020 mb
Dewpoint: 17°C
Heat Index: 21°C
Wind Chill: 20°C
Civil Twilight: 5:40 AM GMT-6 Moon Phase:
Waxing Crescent Moon
Sunrise: 6:03 AM GMT-6
Sunset: 5:05 PM GMT-6
Civil Twilight: 5:29 PM GMT-6
Forecast for Cozumel Civ / Mil, Mexico:
(Forecast based on TAF for )
1200 PM GMT-6 THU NOV 27 2014
  
AFTERNOON EVENING OVERNIGHT
Mostly
Cloudy
Mostly
Cloudy
Mostly
Cloudy
ZoneCast:
Dated: 1200 PM GMT-6 THU NOV 27 2014
Afternoon...Turning mostly cloudy with winds from the northnortheast at 23 mph.

Evening...Mostly cloudy with winds from the northnortheast at 23 mph.

Overnight...Mostly cloudy with winds from the northnortheast at 23 mph.

Original Encoded TAF:
Dated: 1200 PM GMT-6 THU NOV 27 2014
TAF MMCZ 270440Z 2706/2812 36010KT P6SM SCT015 SCT100 BKN250 
     FM271800 02020KT P6SM BKN015 BKN250 
     FM280600 02010KT P6SM SCT015 BKN250